CheckWX is a tool to help pilots better visualize weather data.  It is not intended as a substitute for an official pre-flight weather briefing.

04:32:54 UTC

RPLB METAR
Subic Bay International Airport
Olongapo City, Philippines
Current

33 mins ago

RPLB 240400Z 23009KT 9999 FEW020 BKN300 30/26 Q1009 NOSIG RMK A2980
Observed
Jul-24 @ 04:00 UTC
Wind
  • 230° at 9 KTS
Visibility
10,000+ meters
Flight Rules
VFR
Cloud Levels
  • Few at 2,000' AGL
  • Broken at 30,000' AGL
Temperature
30°C / 86°F
Dewpoint
26°C / 79°F
Heat Index
37°C / 99°F
Humidity
79%
Altimeter
29.79" Hg
Pressure
1008.92 hPa
Previous

2 hours ago

RPLB 240300Z 23007KT 9999 FEW020 BKN300 30/26 Q1009 NOSIG RMK A2980
Observed
Jul-24 @ 03:00 UTC
Wind
  • 230° at 7 KTS
Visibility
10,000+ meters
Flight Rules
VFR
Cloud Levels
  • Few at 2,000' AGL
  • Broken at 30,000' AGL
Temperature
30°C / 86°F
Dewpoint
26°C / 79°F
Heat Index
37°C / 99°F
Humidity
79%
Altimeter
29.79" Hg
Pressure
1008.92 hPa
Previous

3 hours ago

RPLB 240200Z 24004KT 200V280 9999 FEW020 BKN300 30/26 Q1010 NOSIG RMK A2983
Observed
Jul-24 @ 02:00 UTC
Wind
  • 240° at 4 KTS
Visibility
10,000+ meters
Flight Rules
VFR
Cloud Levels
  • Few at 2,000' AGL
  • Broken at 30,000' AGL
Temperature
30°C / 86°F
Dewpoint
26°C / 79°F
Heat Index
37°C / 99°F
Humidity
79%
Altimeter
29.82" Hg
Pressure
1009.92 hPa